Wetter- und Hausseite der Bittkau's aus Magdeburg Ottersleben


Hier werden aktuelle Daten aus einer privaten Wetterstation und

lokale Wettervorhersagen bereitgestellt




Thunder radar more information blitzortung!


Rain radar more information rain snow radar



Es ist keine erhöhte Aufmerksamkeit aufgrund des Wetters notwendig.    Es gibt keine Warnungen.

METAR-Meldungen aus der Umgebung

   
EDDB - Berlin
Aktualisierung: 21.01.2021 6:20
Klar  
Klar  
   Wind: SSO 24.1 km/h
Wind: SSO 24.1 km/h
Temperatur: 6°C
Gefühlt: 2°C
Taupunkt: -1°C
Luftfeuchte: 61%
Luftdruck: 997 hPa
Sichtbarkeit: More than 10 km
Bewölkung: Klar
EDDB 210520Z 16013KT CAVOK 06/M01 Q0997 NOSIG
EDDP - Leipzig
Aktualisierung: 21.01.2021 6:20
Klar  
Klar  
   Wind: Süden 37 km/h
Wind: Süden 37 km/h
Temperatur: 8°C
Gefühlt: 3°C
Taupunkt: -1°C
Luftfeuchte: 53%
Luftdruck: 996 hPa
Sichtbarkeit: More than 10 km
Bewölkung: Klar
EDDP 210520Z 18020KT CAVOK 08/M01 Q0996 TEMPO 21020G30KT
EDDC - Dresden
Aktualisierung: 21.01.2021 6:20
Klar  
Klar  
   Wind: SSO 31.5 km/h<br />Gust to 31.5 km/h
Wind: SSO 31.5 km/h
Gust to 31.5 km/h
Temperatur: 4°C
Gefühlt: -1°C
Taupunkt: -1°C
Luftfeuchte: 70%
Luftdruck: 1001 hPa
Sichtbarkeit: More than 10 km
Bewölkung: Klar
EDDC 210520Z 16017G27KT CAVOK 04/M01 Q1001 NOSIG
EDDE - Erfurt
Aktualisierung: 21.01.2021 6:20
Klar  
Klar  
   Wind: Süden 24.1 km/h
Wind: Süden 24.1 km/h
Temperatur: 7°C
Gefühlt: 3°C
Taupunkt: -2°C
Luftfeuchte: 53%
Luftdruck: 996 hPa
Sichtbarkeit: More than 10 km
Bewölkung: Klar
EDDE 210520Z 17013KT CAVOK 07/M02 Q0996 R88/010095 TEMPO 17015G25KT
EDVE - Braunschweig
Aktualisierung: 21.01.2021 6:20
Stark bewölkt  
Stark bewölkt  
   Wind: Süden 18.5 km/h
Wind: Süden 18.5 km/h
Temperatur: 11°C
Taupunkt: 0°C
Luftfeuchte: 47%
Luftdruck: 991 hPa
Bewölkt: Stark bewölkt
Sichtbarkeit: More than 10 km
Bewölkung: leicht bewölkt 3352.8 m,
Stark bewölkt 4572 m
EDVE 210520Z AUTO 18010KT 140V220 9999 FEW110/// BKN150/// 11/M00 Q0991
EDDV - Hannover
Aktualisierung: 21.01.2021 6:20
Klar  
Klar  
   Wind: Süden 35.2 km/h
Wind: Süden 35.2 km/h
Temperatur: 11°C
Taupunkt: 1°C
Luftfeuchte: 50%
Luftdruck: 988 hPa
Sichtbarkeit: More than 10 km
Bewölkung: Klar
EDDV 210520Z 19019KT CAVOK 11/01 Q0988 TEMPO 20020G30KT
EDDE - Schwerin
Aktualisierung: 21.01.2021 6:20
Klar  
Klar  
   Wind: Süden 24.1 km/h
Wind: Süden 24.1 km/h
Temperatur: 7°C
Gefühlt: 3°C
Taupunkt: -2°C
Luftfeuchte: 53%
Luftdruck: 996 hPa
Sichtbarkeit: More than 10 km
Bewölkung: Klar
EDDE 210520Z 17013KT CAVOK 07/M02 Q0996 R88/010095 TEMPO 17015G25KT
EDHI - Hamburg
Aktualisierung: 21.01.2021 6:20
Klar  
Klar  
   Wind: Süden 22.2 km/h<br />Gust to 22.2 km/h
Wind: Süden 22.2 km/h
Gust to 22.2 km/h
Temperatur: 10°C
Gefühlt: 7°C
Taupunkt: 2°C
Luftfeuchte: 58%
Luftdruck: 986 hPa
Sichtbarkeit: More than 10 km
Bewölkung: Klar
EDHI 210520Z 17012G23KT 130V230 CAVOK 10/02 Q0986
EDDK - Köln-Bonn
Aktualisierung: 21.01.2021 6:20
leicht bewölkt  
leicht bewölkt  
   Wind: Süden 37 km/h
Wind: Süden 37 km/h
Temperatur: 11°C
Taupunkt: 4°C
Luftfeuchte: 62%
Luftdruck: 990 hPa
Bewölkt: leicht bewölkt
Sichtbarkeit: More than 10 km
Bewölkung: leicht bewölkt 1066.8 m
EDDK 210520Z 19020KT 9999 FEW035 11/04 Q0990 TEMPO 25025G45KT SHRA BKN025CB

Script entwickelt von  Saratoga-weather.org Angepasst für das Template von  Weerstation Leuven

Sie finden die Wetterinfo auch auf:

Wetternetzwerk Deutschland

European Weather Network

Weather Underground

Regionalwetter-SA

wetter.com

wxforum.de

Genutzte Hardware, Software und WEB Anbieter:

Wetterstation
Ventus W928-Ultimate

Wetterprogramm
Meteohub

WetterComputer
RaspberryPI

Anbieter

Ventus W928-Ultimate

Meteohub

RaspberryPI